sensor_id;sensor_type;location;lat;lon;timestamp;P1;durP1;ratioP1;P2;durP2;ratioP2
35797;SDS011;21918;49.940;7.774;2023-06-14T00:00:11;5.00;;;4.53;;
35797;SDS011;21918;49.940;7.774;2023-06-14T00:02:40;4.82;;;4.32;;
35797;SDS011;21918;49.940;7.774;2023-06-14T00:05:07;5.00;;;4.35;;
35797;SDS011;21918;49.940;7.774;2023-06-14T00:07:34;5.28;;;4.78;;
35797;SDS011;21918;49.940;7.774;2023-06-14T00:10:07;6.22;;;3.92;;
35797;SDS011;21918;49.940;7.774;2023-06-14T00:12:38;4.90;;;4.40;;
35797;SDS011;21918;49.940;7.774;2023-06-14T00:15:05;4.63;;;4.22;;
35797;SDS011;21918;49.940;7.774;2023-06-14T00:17:34;4.82;;;4.43;;
35797;SDS011;21918;49.940;7.774;2023-06-14T00:20:03;8.00;;;4.50;;
35797;SDS011;21918;49.940;7.774;2023-06-14T00:22:34;4.45;;;4.05;;
35797;SDS011;21918;49.940;7.774;2023-06-14T00:25:01;5.53;;;5.03;;
35797;SDS011;21918;49.940;7.774;2023-06-14T00:27:28;4.93;;;4.53;;
35797;SDS011;21918;49.940;7.774;2023-06-14T00:29:55;4.75;;;4.25;;
35797;SDS011;21918;49.940;7.774;2023-06-14T00:32:23;4.90;;;4.10;;
35797;SDS011;21918;49.940;7.774;2023-06-14T00:34:50;5.43;;;4.65;;
35797;SDS011;21918;49.940;7.774;2023-06-14T00:37:18;5.72;;;4.20;;
35797;SDS011;21918;49.940;7.774;2023-06-14T00:39:45;6.10;;;4.50;;
35797;SDS011;21918;49.940;7.774;2023-06-14T00:42:22;4.97;;;4.47;;
35797;SDS011;21918;49.940;7.774;2023-06-14T00:44:49;4.93;;;4.43;;
35797;SDS011;21918;49.940;7.774;2023-06-14T00:47:16;5.75;;;4.65;;
35797;SDS011;21918;49.940;7.774;2023-06-14T00:49:42;4.55;;;4.15;;
35797;SDS011;21918;49.940;7.774;2023-06-14T00:52:11;5.25;;;4.57;;
35797;SDS011;21918;49.940;7.774;2023-06-14T00:54:41;5.35;;;4.68;;
35797;SDS011;21918;49.940;7.774;2023-06-14T00:57:07;5.32;;;4.40;;
35797;SDS011;21918;49.940;7.774;2023-06-14T00:59:35;5.35;;;4.82;;
35797;SDS011;21918;49.940;7.774;2023-06-14T01:02:08;4.82;;;4.43;;
35797;SDS011;21918;49.940;7.774;2023-06-14T01:04:34;4.82;;;4.43;;
35797;SDS011;21918;49.940;7.774;2023-06-14T01:07:07;4.47;;;4.07;;
35797;SDS011;21918;49.940;7.774;2023-06-14T01:09:44;5.20;;;4.72;;
35797;SDS011;21918;49.940;7.774;2023-06-14T01:12:26;4.05;;;3.65;;
35797;SDS011;21918;49.940;7.774;2023-06-14T01:15:02;5.53;;;4.57;;
35797;SDS011;21918;49.940;7.774;2023-06-14T01:17:29;5.10;;;4.60;;
35797;SDS011;21918;49.940;7.774;2023-06-14T01:19:58;4.95;;;4.55;;
35797;SDS011;21918;49.940;7.774;2023-06-14T01:22:25;5.80;;;5.22;;
35797;SDS011;21918;49.940;7.774;2023-06-14T01:24:53;4.65;;;4.25;;
35797;SDS011;21918;49.940;7.774;2023-06-14T01:27:22;4.75;;;4.25;;
35797;SDS011;21918;49.940;7.774;2023-06-14T01:29:53;4.97;;;4.57;;
35797;SDS011;21918;49.940;7.774;2023-06-14T01:32:22;4.90;;;4.40;;
35797;SDS011;21918;49.940;7.774;2023-06-14T01:34:50;5.18;;;4.68;;
35797;SDS011;21918;49.940;7.774;2023-06-14T01:37:17;4.82;;;4.43;;
35797;SDS011;21918;49.940;7.774;2023-06-14T01:39:46;4.65;;;4.25;;
35797;SDS011;21918;49.940;7.774;2023-06-14T01:42:16;4.85;;;4.45;;
35797;SDS011;21918;49.940;7.774;2023-06-14T01:44:43;4.75;;;4.22;;
35797;SDS011;21918;49.940;7.774;2023-06-14T01:47:11;6.43;;;4.50;;
35797;SDS011;21918;49.940;7.774;2023-06-14T01:49:38;6.35;;;3.92;;
35797;SDS011;21918;49.940;7.774;2023-06-14T01:52:05;5.43;;;4.93;;
35797;SDS011;21918;49.940;7.774;2023-06-14T01:54:34;18.08;;;4.55;;
35797;SDS011;21918;49.940;7.774;2023-06-14T01:57:03;4.72;;;4.32;;
35797;SDS011;21918;49.940;7.774;2023-06-14T01:59:33;5.95;;;4.70;;
35797;SDS011;21918;49.940;7.774;2023-06-14T02:02:00;4.75;;;4.07;;
35797;SDS011;21918;49.940;7.774;2023-06-14T02:04:27;4.47;;;4.03;;
35797;SDS011;21918;49.940;7.774;2023-06-14T02:06:54;4.47;;;4.07;;
35797;SDS011;21918;49.940;7.774;2023-06-14T02:09:21;5.30;;;4.47;;
35797;SDS011;21918;49.940;7.774;2023-06-14T02:11:48;5.15;;;4.45;;
35797;SDS011;21918;49.940;7.774;2023-06-14T02:14:15;5.07;;;4.43;;
35797;SDS011;21918;49.940;7.774;2023-06-14T02:16:43;5.10;;;4.57;;
35797;SDS011;21918;49.940;7.774;2023-06-14T02:19:13;5.32;;;4.65;;
35797;SDS011;21918;49.940;7.774;2023-06-14T02:21:40;5.10;;;4.13;;
35797;SDS011;21918;49.940;7.774;2023-06-14T02:24:07;4.38;;;3.60;;
35797;SDS011;21918;49.940;7.774;2023-06-14T02:26:33;7.38;;;5.03;;
35797;SDS011;21918;49.940;7.774;2023-06-14T02:29:01;4.43;;;4.03;;
35797;SDS011;21918;49.940;7.774;2023-06-14T02:31:28;9.07;;;5.13;;
35797;SDS011;21918;49.940;7.774;2023-06-14T02:33:56;5.50;;;5.00;;
35797;SDS011;21918;49.940;7.774;2023-06-14T02:36:23;5.55;;;4.50;;
35797;SDS011;21918;49.940;7.774;2023-06-14T02:38:50;6.00;;;4.60;;
35797;SDS011;21918;49.940;7.774;2023-06-14T02:41:18;4.97;;;4.28;;
35797;SDS011;21918;49.940;7.774;2023-06-14T02:43:44;5.90;;;4.00;;
35797;SDS011;21918;49.940;7.774;2023-06-14T02:46:11;4.82;;;4.30;;
35797;SDS011;21918;49.940;7.774;2023-06-14T02:48:38;5.65;;;5.07;;
35797;SDS011;21918;49.940;7.774;2023-06-14T02:51:06;5.20;;;4.55;;
35797;SDS011;21918;49.940;7.774;2023-06-14T02:53:34;4.43;;;4.03;;
35797;SDS011;21918;49.940;7.774;2023-06-14T02:56:01;5.10;;;4.70;;
35797;SDS011;21918;49.940;7.774;2023-06-14T02:58:28;4.07;;;3.78;;
35797;SDS011;21918;49.940;7.774;2023-06-14T03:00:55;5.40;;;4.82;;
35797;SDS011;21918;49.940;7.774;2023-06-14T03:03:22;4.63;;;4.22;;
35797;SDS011;21918;49.940;7.774;2023-06-14T03:05:50;4.13;;;3.72;;
35797;SDS011;21918;49.940;7.774;2023-06-14T03:08:18;4.40;;;3.97;;
35797;SDS011;21918;49.940;7.774;2023-06-14T03:10:45;5.57;;;4.45;;
35797;SDS011;21918;49.940;7.774;2023-06-14T03:13:12;7.43;;;4.50;;
35797;SDS011;21918;49.940;7.774;2023-06-14T03:15:40;4.50;;;4.10;;
35797;SDS011;21918;49.940;7.774;2023-06-14T03:18:08;5.45;;;4.43;;
35797;SDS011;21918;49.940;7.774;2023-06-14T03:20:36;6.20;;;4.57;;
35797;SDS011;21918;49.940;7.774;2023-06-14T03:23:03;4.75;;;4.35;;
35797;SDS011;21918;49.940;7.774;2023-06-14T03:25:32;5.93;;;4.00;;
35797;SDS011;21918;49.940;7.774;2023-06-14T03:28:00;4.47;;;4.07;;
35797;SDS011;21918;49.940;7.774;2023-06-14T03:30:27;4.22;;;3.83;;
35797;SDS011;21918;49.940;7.774;2023-06-14T03:32:56;4.20;;;3.85;;
35797;SDS011;21918;49.940;7.774;2023-06-14T03:35:26;3.92;;;3.50;;
35797;SDS011;21918;49.940;7.774;2023-06-14T03:37:53;4.57;;;4.05;;
35797;SDS011;21918;49.940;7.774;2023-06-14T03:40:20;4.63;;;4.22;;
35797;SDS011;21918;49.940;7.774;2023-06-14T03:42:48;5.00;;;4.22;;
35797;SDS011;21918;49.940;7.774;2023-06-14T03:45:15;5.00;;;4.32;;
35797;SDS011;21918;49.940;7.774;2023-06-14T03:47:42;4.78;;;4.15;;
35797;SDS011;21918;49.940;7.774;2023-06-14T03:50:09;4.90;;;4.38;;
35797;SDS011;21918;49.940;7.774;2023-06-14T03:52:36;6.20;;;4.43;;
35797;SDS011;21918;49.940;7.774;2023-06-14T03:55:03;4.40;;;3.83;;
35797;SDS011;21918;49.940;7.774;2023-06-14T03:57:30;3.92;;;3.63;;
35797;SDS011;21918;49.940;7.774;2023-06-14T03:59:58;4.40;;;4.00;;
35797;SDS011;21918;49.940;7.774;2023-06-14T04:02:25;5.03;;;4.32;;
35797;SDS011;21918;49.940;7.774;2023-06-14T04:04:55;4.75;;;4.35;;
35797;SDS011;21918;49.940;7.774;2023-06-14T04:07:24;5.38;;;4.88;;
35797;SDS011;21918;49.940;7.774;2023-06-14T04:09:53;5.65;;;4.07;;
35797;SDS011;21918;49.940;7.774;2023-06-14T04:12:20;6.40;;;4.68;;
35797;SDS011;21918;49.940;7.774;2023-06-14T04:14:49;4.38;;;4.00;;
35797;SDS011;21918;49.940;7.774;2023-06-14T04:17:17;4.50;;;4.10;;
35797;SDS011;21918;49.940;7.774;2023-06-14T04:19:44;5.18;;;4.07;;
35797;SDS011;21918;49.940;7.774;2023-06-14T04:22:11;7.43;;;5.25;;
35797;SDS011;21918;49.940;7.774;2023-06-14T04:24:37;6.00;;;3.70;;
35797;SDS011;21918;49.940;7.774;2023-06-14T04:27:04;4.90;;;4.15;;
35797;SDS011;21918;49.940;7.774;2023-06-14T04:29:32;7.60;;;5.40;;
35797;SDS011;21918;49.940;7.774;2023-06-14T04:31:59;5.82;;;4.72;;
35797;SDS011;21918;49.940;7.774;2023-06-14T04:34:28;4.63;;;4.22;;
35797;SDS011;21918;49.940;7.774;2023-06-14T04:36:56;8.35;;;3.83;;
35797;SDS011;21918;49.940;7.774;2023-06-14T04:39:24;5.07;;;4.68;;
35797;SDS011;21918;49.940;7.774;2023-06-14T04:41:52;5.85;;;5.30;;
35797;SDS011;21918;49.940;7.774;2023-06-14T04:44:22;7.03;;;4.95;;
35797;SDS011;21918;49.940;7.774;2023-06-14T04:46:55;7.03;;;5.13;;
35797;SDS011;21918;49.940;7.774;2023-06-14T04:49:24;5.72;;;5.13;;
35797;SDS011;21918;49.940;7.774;2023-06-14T04:51:54;5.07;;;4.57;;
35797;SDS011;21918;49.940;7.774;2023-06-14T04:54:24;5.20;;;4.70;;
35797;SDS011;21918;49.940;7.774;2023-06-14T04:56:50;4.75;;;4.35;;
35797;SDS011;21918;49.940;7.774;2023-06-14T04:59:19;7.18;;;5.15;;
35797;SDS011;21918;49.940;7.774;2023-06-14T05:01:48;6.68;;;5.50;;
35797;SDS011;21918;49.940;7.774;2023-06-14T05:04:14;6.15;;;4.63;;
35797;SDS011;21918;49.940;7.774;2023-06-14T05:06:41;7.65;;;5.15;;
35797;SDS011;21918;49.940;7.774;2023-06-14T05:09:11;6.85;;;4.97;;
35797;SDS011;21918;49.940;7.774;2023-06-14T05:11:37;6.82;;;5.35;;
35797;SDS011;21918;49.940;7.774;2023-06-14T05:14:10;7.78;;;5.47;;
35797;SDS011;21918;49.940;7.774;2023-06-14T05:16:47;9.80;;;5.45;;
35797;SDS011;21918;49.940;7.774;2023-06-14T05:19:16;5.53;;;4.43;;
35797;SDS011;21918;49.940;7.774;2023-06-14T05:21:42;5.25;;;4.35;;
35797;SDS011;21918;49.940;7.774;2023-06-14T05:24:11;8.30;;;5.18;;
35797;SDS011;21918;49.940;7.774;2023-06-14T05:26:37;6.25;;;4.90;;
35797;SDS011;21918;49.940;7.774;2023-06-14T05:29:04;6.80;;;5.28;;
35797;SDS011;21918;49.940;7.774;2023-06-14T05:31:31;4.93;;;4.45;;
35797;SDS011;21918;49.940;7.774;2023-06-14T05:33:58;4.43;;;4.00;;
35797;SDS011;21918;49.940;7.774;2023-06-14T05:36:24;5.05;;;4.55;;
35797;SDS011;21918;49.940;7.774;2023-06-14T05:38:52;6.70;;;4.82;;
35797;SDS011;21918;49.940;7.774;2023-06-14T05:41:26;7.35;;;5.47;;
35797;SDS011;21918;49.940;7.774;2023-06-14T05:43:53;8.77;;;5.18;;
35797;SDS011;21918;49.940;7.774;2023-06-14T05:46:25;5.70;;;4.78;;
35797;SDS011;21918;49.940;7.774;2023-06-14T05:48:51;7.38;;;5.55;;
35797;SDS011;21918;49.940;7.774;2023-06-14T05:51:18;7.65;;;4.95;;
35797;SDS011;21918;49.940;7.774;2023-06-14T05:53:45;8.32;;;5.78;;
35797;SDS011;21918;49.940;7.774;2023-06-14T05:56:13;8.23;;;5.45;;
35797;SDS011;21918;49.940;7.774;2023-06-14T05:58:44;7.05;;;4.80;;
35797;SDS011;21918;49.940;7.774;2023-06-14T06:01:11;7.15;;;4.55;;
35797;SDS011;21918;49.940;7.774;2023-06-14T06:03:38;6.95;;;5.22;;
35797;SDS011;21918;49.940;7.774;2023-06-14T06:06:05;7.63;;;5.10;;
35797;SDS011;21918;49.940;7.774;2023-06-14T06:08:32;6.00;;;5.40;;
35797;SDS011;21918;49.940;7.774;2023-06-14T06:11:00;6.18;;;5.57;;
35797;SDS011;21918;49.940;7.774;2023-06-14T06:13:26;5.45;;;4.95;;
35797;SDS011;21918;49.940;7.774;2023-06-14T06:15:54;4.68;;;4.28;;
35797;SDS011;21918;49.940;7.774;2023-06-14T06:18:21;5.25;;;4.75;;
35797;SDS011;21918;49.940;7.774;2023-06-14T06:20:48;5.95;;;4.40;;
35797;SDS011;21918;49.940;7.774;2023-06-14T06:23:15;5.18;;;4.10;;
35797;SDS011;21918;49.940;7.774;2023-06-14T06:25:42;4.35;;;3.95;;
35797;SDS011;21918;49.940;7.774;2023-06-14T06:28:10;4.43;;;4.03;;
35797;SDS011;21918;49.940;7.774;2023-06-14T06:30:37;4.13;;;3.83;;
35797;SDS011;21918;49.940;7.774;2023-06-14T06:33:05;5.68;;;4.03;;
35797;SDS011;21918;49.940;7.774;2023-06-14T06:35:34;4.05;;;3.45;;
35797;SDS011;21918;49.940;7.774;2023-06-14T06:38:01;5.13;;;4.10;;
35797;SDS011;21918;49.940;7.774;2023-06-14T06:40:28;4.40;;;4.00;;
35797;SDS011;21918;49.940;7.774;2023-06-14T06:42:56;6.82;;;4.05;;
35797;SDS011;21918;49.940;7.774;2023-06-14T06:45:23;4.07;;;3.78;;
35797;SDS011;21918;49.940;7.774;2023-06-14T06:47:50;5.40;;;4.15;;
35797;SDS011;21918;49.940;7.774;2023-06-14T06:50:20;5.53;;;4.40;;
35797;SDS011;21918;49.940;7.774;2023-06-14T06:52:48;3.92;;;3.63;;
35797;SDS011;21918;49.940;7.774;2023-06-14T06:55:14;4.72;;;3.75;;
35797;SDS011;21918;49.940;7.774;2023-06-14T06:57:43;3.80;;;3.40;;
35797;SDS011;21918;49.940;7.774;2023-06-14T07:00:10;4.68;;;4.05;;
35797;SDS011;21918;49.940;7.774;2023-06-14T07:02:37;4.40;;;4.00;;
35797;SDS011;21918;49.940;7.774;2023-06-14T07:05:04;3.65;;;3.35;;
35797;SDS011;21918;49.940;7.774;2023-06-14T07:07:33;4.95;;;4.45;;
35797;SDS011;21918;49.940;7.774;2023-06-14T07:10:03;3.92;;;3.63;;
35797;SDS011;21918;49.940;7.774;2023-06-14T07:12:30;4.35;;;3.90;;
35797;SDS011;21918;49.940;7.774;2023-06-14T07:14:58;4.55;;;3.72;;
35797;SDS011;21918;49.940;7.774;2023-06-14T07:17:25;8.13;;;4.95;;
35797;SDS011;21918;49.940;7.774;2023-06-14T07:19:52;5.57;;;3.65;;
35797;SDS011;21918;49.940;7.774;2023-06-14T07:22:19;4.30;;;3.88;;
35797;SDS011;21918;49.940;7.774;2023-06-14T07:24:47;3.97;;;3.55;;
35797;SDS011;21918;49.940;7.774;2023-06-14T07:27:14;6.72;;;3.65;;
35797;SDS011;21918;49.940;7.774;2023-06-14T07:29:42;4.40;;;4.00;;
35797;SDS011;21918;49.940;7.774;2023-06-14T07:32:09;5.57;;;3.65;;
35797;SDS011;21918;49.940;7.774;2023-06-14T07:34:36;5.13;;;3.65;;
35797;SDS011;21918;49.940;7.774;2023-06-14T07:37:03;3.63;;;3.22;;
35797;SDS011;21918;49.940;7.774;2023-06-14T07:39:30;3.67;;;3.10;;
35797;SDS011;21918;49.940;7.774;2023-06-14T07:41:58;3.60;;;3.30;;
35797;SDS011;21918;49.940;7.774;2023-06-14T07:44:24;6.45;;;3.75;;
35797;SDS011;21918;49.940;7.774;2023-06-14T07:46:56;3.92;;;3.63;;
35797;SDS011;21918;49.940;7.774;2023-06-14T07:49:25;5.85;;;3.70;;
35797;SDS011;21918;49.940;7.774;2023-06-14T07:51:53;4.57;;;3.63;;
35797;SDS011;21918;49.940;7.774;2023-06-14T07:54:20;4.93;;;3.40;;
35797;SDS011;21918;49.940;7.774;2023-06-14T07:56:51;4.55;;;4.15;;
35797;SDS011;21918;49.940;7.774;2023-06-14T07:59:19;3.65;;;3.35;;
35797;SDS011;21918;49.940;7.774;2023-06-14T08:01:46;3.92;;;3.33;;
35797;SDS011;21918;49.940;7.774;2023-06-14T08:04:13;4.55;;;3.08;;
35797;SDS011;21918;49.940;7.774;2023-06-14T08:06:40;6.60;;;3.13;;
35797;SDS011;21918;49.940;7.774;2023-06-14T08:09:09;14.98;;;3.70;;
35797;SDS011;21918;49.940;7.774;2023-06-14T08:11:36;4.53;;;3.13;;
35797;SDS011;21918;49.940;7.774;2023-06-14T08:14:03;5.43;;;3.33;;
35797;SDS011;21918;49.940;7.774;2023-06-14T08:16:31;2.88;;;2.67;;
35797;SDS011;21918;49.940;7.774;2023-06-14T08:18:59;7.03;;;3.28;;
35797;SDS011;21918;49.940;7.774;2023-06-14T08:21:28;4.35;;;2.90;;
35797;SDS011;21918;49.940;7.774;2023-06-14T08:23:54;3.65;;;3.10;;
35797;SDS011;21918;49.940;7.774;2023-06-14T08:26:21;3.65;;;3.35;;
35797;SDS011;21918;49.940;7.774;2023-06-14T08:28:48;4.65;;;3.22;;
35797;SDS011;21918;49.940;7.774;2023-06-14T08:31:16;3.38;;;3.08;;
35797;SDS011;21918;49.940;7.774;2023-06-14T08:33:44;2.83;;;2.63;;
35797;SDS011;21918;49.940;7.774;2023-06-14T08:36:11;4.25;;;3.22;;
35797;SDS011;21918;49.940;7.774;2023-06-14T08:38:38;6.32;;;2.45;;
35797;SDS011;21918;49.940;7.774;2023-06-14T08:41:05;3.80;;;2.75;;
35797;SDS011;21918;49.940;7.774;2023-06-14T08:43:32;9.38;;;3.22;;
35797;SDS011;21918;49.940;7.774;2023-06-14T08:46:00;5.07;;;3.25;;
35797;SDS011;21918;49.940;7.774;2023-06-14T08:48:29;4.22;;;3.25;;
35797;SDS011;21918;49.940;7.774;2023-06-14T08:51:00;5.82;;;3.22;;
35797;SDS011;21918;49.940;7.774;2023-06-14T08:53:28;4.93;;;2.90;;
35797;SDS011;21918;49.940;7.774;2023-06-14T08:55:57;2.72;;;2.53;;
35797;SDS011;21918;49.940;7.774;2023-06-14T08:58:25;5.03;;;2.53;;
35797;SDS011;21918;49.940;7.774;2023-06-14T09:00:54;3.35;;;2.90;;
35797;SDS011;21918;49.940;7.774;2023-06-14T09:03:22;4.50;;;2.92;;
35797;SDS011;21918;49.940;7.774;2023-06-14T09:05:53;4.00;;;3.20;;
35797;SDS011;21918;49.940;7.774;2023-06-14T09:08:22;6.15;;;2.33;;
35797;SDS011;21918;49.940;7.774;2023-06-14T09:10:48;6.07;;;3.15;;
35797;SDS011;21918;49.940;7.774;2023-06-14T09:13:16;4.00;;;2.80;;
35797;SDS011;21918;49.940;7.774;2023-06-14T09:15:43;3.08;;;2.78;;
35797;SDS011;21918;49.940;7.774;2023-06-14T09:18:10;3.58;;;3.08;;
35797;SDS011;21918;49.940;7.774;2023-06-14T09:20:37;3.83;;;2.20;;
35797;SDS011;21918;49.940;7.774;2023-06-14T09:23:03;2.85;;;2.55;;
35797;SDS011;21918;49.940;7.774;2023-06-14T09:25:34;2.83;;;2.63;;
35797;SDS011;21918;49.940;7.774;2023-06-14T09:28:08;2.83;;;2.53;;
35797;SDS011;21918;49.940;7.774;2023-06-14T09:30:35;5.57;;;2.88;;
35797;SDS011;21918;49.940;7.774;2023-06-14T09:33:02;3.33;;;3.03;;
35797;SDS011;21918;49.940;7.774;2023-06-14T09:35:31;2.80;;;2.60;;
35797;SDS011;21918;49.940;7.774;2023-06-14T09:38:00;2.80;;;2.25;;
35797;SDS011;21918;49.940;7.774;2023-06-14T09:40:26;2.30;;;2.10;;
35797;SDS011;21918;49.940;7.774;2023-06-14T09:42:54;7.63;;;3.15;;
35797;SDS011;21918;49.940;7.774;2023-06-14T09:45:22;2.38;;;2.17;;
35797;SDS011;21918;49.940;7.774;2023-06-14T09:47:50;6.35;;;2.65;;
35797;SDS011;21918;49.940;7.774;2023-06-14T09:50:17;2.67;;;2.45;;
35797;SDS011;21918;49.940;7.774;2023-06-14T09:52:44;3.00;;;2.70;;
35797;SDS011;21918;49.940;7.774;2023-06-14T09:55:14;2.92;;;2.63;;
35797;SDS011;21918;49.940;7.774;2023-06-14T09:57:44;2.53;;;2.33;;
35797;SDS011;21918;49.940;7.774;2023-06-14T10:00:15;2.60;;;2.40;;
35797;SDS011;21918;49.940;7.774;2023-06-14T10:02:44;2.47;;;2.20;;
35797;SDS011;21918;49.940;7.774;2023-06-14T10:05:18;3.00;;;2.65;;
35797;SDS011;21918;49.940;7.774;2023-06-14T10:07:48;2.70;;;2.20;;
35797;SDS011;21918;49.940;7.774;2023-06-14T10:10:18;3.83;;;2.13;;
35797;SDS011;21918;49.940;7.774;2023-06-14T10:12:45;3.13;;;2.15;;
35797;SDS011;21918;49.940;7.774;2023-06-14T10:15:15;3.05;;;2.85;;
35797;SDS011;21918;49.940;7.774;2023-06-14T10:17:47;2.20;;;2.00;;
35797;SDS011;21918;49.940;7.774;2023-06-14T10:20:23;2.67;;;2.28;;
35797;SDS011;21918;49.940;7.774;2023-06-14T10:22:56;2.40;;;2.25;;
35797;SDS011;21918;49.940;7.774;2023-06-14T10:25:28;2.67;;;2.28;;
35797;SDS011;21918;49.940;7.774;2023-06-14T10:28:03;2.58;;;2.25;;
35797;SDS011;21918;49.940;7.774;2023-06-14T10:30:42;3.70;;;2.75;;
35797;SDS011;21918;49.940;7.774;2023-06-14T10:33:29;3.90;;;2.47;;
35797;SDS011;21918;49.940;7.774;2023-06-14T10:36:06;2.92;;;2.15;;
35797;SDS011;21918;49.940;7.774;2023-06-14T10:38:36;6.40;;;2.72;;
35797;SDS011;21918;49.940;7.774;2023-06-14T10:41:04;4.10;;;2.58;;
35797;SDS011;21918;49.940;7.774;2023-06-14T10:43:31;2.35;;;2.20;;
35797;SDS011;21918;49.940;7.774;2023-06-14T10:46:15;5.85;;;2.67;;
35797;SDS011;21918;49.940;7.774;2023-06-14T10:48:43;3.88;;;2.50;;
35797;SDS011;21918;49.940;7.774;2023-06-14T10:51:19;2.92;;;2.67;;
35797;SDS011;21918;49.940;7.774;2023-06-14T10:53:47;2.78;;;2.30;;
35797;SDS011;21918;49.940;7.774;2023-06-14T10:56:24;2.80;;;2.60;;
35797;SDS011;21918;49.940;7.774;2023-06-14T10:58:57;5.43;;;2.78;;
35797;SDS011;21918;49.940;7.774;2023-06-14T11:01:31;3.30;;;2.35;;
35797;SDS011;21918;49.940;7.774;2023-06-14T11:04:09;2.90;;;2.63;;
35797;SDS011;21918;49.940;7.774;2023-06-14T11:06:44;3.67;;;2.10;;
35797;SDS011;21918;49.940;7.774;2023-06-14T11:12:11;3.22;;;2.42;;
35797;SDS011;21918;49.940;7.774;2023-06-14T11:14:39;3.72;;;2.35;;
35797;SDS011;21918;49.940;7.774;2023-06-14T11:17:07;6.85;;;2.45;;
35797;SDS011;21918;49.940;7.774;2023-06-14T11:19:34;2.13;;;1.92;;
35797;SDS011;21918;49.940;7.774;2023-06-14T11:22:01;2.88;;;2.67;;
35797;SDS011;21918;49.940;7.774;2023-06-14T11:24:28;2.47;;;2.28;;
35797;SDS011;21918;49.940;7.774;2023-06-14T11:26:55;2.95;;;1.98;;
35797;SDS011;21918;49.940;7.774;2023-06-14T11:29:22;3.58;;;2.13;;
35797;SDS011;21918;49.940;7.774;2023-06-14T11:31:49;3.15;;;2.28;;
35797;SDS011;21918;49.940;7.774;2023-06-14T11:34:18;1.95;;;1.85;;
35797;SDS011;21918;49.940;7.774;2023-06-14T11:36:45;2.58;;;2.38;;
35797;SDS011;21918;49.940;7.774;2023-06-14T11:39:12;2.15;;;2.00;;
35797;SDS011;21918;49.940;7.774;2023-06-14T11:41:40;2.00;;;1.90;;
35797;SDS011;21918;49.940;7.774;2023-06-14T11:44:07;2.70;;;2.38;;
35797;SDS011;21918;49.940;7.774;2023-06-14T11:46:37;2.30;;;2.00;;
35797;SDS011;21918;49.940;7.774;2023-06-14T11:49:04;3.58;;;2.05;;
35797;SDS011;21918;49.940;7.774;2023-06-14T11:51:34;2.33;;;2.13;;
35797;SDS011;21918;49.940;7.774;2023-06-14T11:54:01;1.67;;;1.58;;
35797;SDS011;21918;49.940;7.774;2023-06-14T11:56:30;2.30;;;2.10;;
35797;SDS011;21918;49.940;7.774;2023-06-14T11:58:58;3.42;;;2.25;;
35797;SDS011;21918;49.940;7.774;2023-06-14T12:01:27;2.38;;;2.17;;
35797;SDS011;21918;49.940;7.774;2023-06-14T12:03:56;3.50;;;2.05;;
35797;SDS011;21918;49.940;7.774;2023-06-14T12:06:26;2.35;;;2.10;;
35797;SDS011;21918;49.940;7.774;2023-06-14T12:08:59;2.47;;;2.05;;
35797;SDS011;21918;49.940;7.774;2023-06-14T12:11:35;2.78;;;2.05;;
35797;SDS011;21918;49.940;7.774;2023-06-14T12:14:03;2.63;;;2.17;;
35797;SDS011;21918;49.940;7.774;2023-06-14T12:16:30;2.70;;;2.45;;
35797;SDS011;21918;49.940;7.774;2023-06-14T12:19:00;2.33;;;1.70;;
35797;SDS011;21918;49.940;7.774;2023-06-14T12:21:28;4.00;;;2.35;;
35797;SDS011;21918;49.940;7.774;2023-06-14T12:23:55;3.05;;;2.00;;
35797;SDS011;21918;49.940;7.774;2023-06-14T12:26:24;2.40;;;2.20;;
35797;SDS011;21918;49.940;7.774;2023-06-14T12:28:52;2.08;;;1.88;;
35797;SDS011;21918;49.940;7.774;2023-06-14T12:31:21;2.08;;;1.98;;
35797;SDS011;21918;49.940;7.774;2023-06-14T12:33:49;2.60;;;2.40;;
35797;SDS011;21918;49.940;7.774;2023-06-14T12:36:16;2.20;;;2.00;;
35797;SDS011;21918;49.940;7.774;2023-06-14T12:38:43;1.85;;;1.75;;
35797;SDS011;21918;49.940;7.774;2023-06-14T12:41:10;5.10;;;2.45;;
35797;SDS011;21918;49.940;7.774;2023-06-14T12:43:40;2.35;;;2.15;;
35797;SDS011;21918;49.940;7.774;2023-06-14T12:46:09;3.03;;;1.90;;
35797;SDS011;21918;49.940;7.774;2023-06-14T12:48:35;7.43;;;2.08;;
35797;SDS011;21918;49.940;7.774;2023-06-14T12:51:02;2.03;;;1.92;;
35797;SDS011;21918;49.940;7.774;2023-06-14T12:53:31;2.42;;;2.22;;
35797;SDS011;21918;49.940;7.774;2023-06-14T12:55:57;2.58;;;2.38;;
35797;SDS011;21918;49.940;7.774;2023-06-14T12:58:30;2.63;;;2.42;;
35797;SDS011;21918;49.940;7.774;2023-06-14T13:00:58;1.90;;;1.80;;
35797;SDS011;21918;49.940;7.774;2023-06-14T13:03:25;2.17;;;2.08;;
35797;SDS011;21918;49.940;7.774;2023-06-14T13:05:52;3.17;;;2.42;;
35797;SDS011;21918;49.940;7.774;2023-06-14T13:08:18;2.45;;;2.17;;
35797;SDS011;21918;49.940;7.774;2023-06-14T13:10:45;2.33;;;2.13;;
35797;SDS011;21918;49.940;7.774;2023-06-14T13:13:11;3.85;;;2.58;;
35797;SDS011;21918;49.940;7.774;2023-06-14T13:15:40;2.60;;;2.40;;
35797;SDS011;21918;49.940;7.774;2023-06-14T13:18:08;5.05;;;2.78;;
35797;SDS011;21918;49.940;7.774;2023-06-14T13:20:37;2.28;;;2.17;;
35797;SDS011;21918;49.940;7.774;2023-06-14T13:23:03;2.63;;;2.42;;
35797;SDS011;21918;49.940;7.774;2023-06-14T13:25:32;2.40;;;2.20;;
35797;SDS011;21918;49.940;7.774;2023-06-14T13:27:59;2.60;;;2.40;;
35797;SDS011;21918;49.940;7.774;2023-06-14T13:30:25;4.63;;;2.58;;
35797;SDS011;21918;49.940;7.774;2023-06-14T13:32:52;2.90;;;2.45;;
35797;SDS011;21918;49.940;7.774;2023-06-14T13:35:22;2.17;;;2.08;;
35797;SDS011;21918;49.940;7.774;2023-06-14T13:37:49;2.75;;;2.55;;
35797;SDS011;21918;49.940;7.774;2023-06-14T13:40:16;4.45;;;2.38;;
35797;SDS011;21918;49.940;7.774;2023-06-14T13:42:43;2.50;;;2.30;;
35797;SDS011;21918;49.940;7.774;2023-06-14T13:45:10;2.88;;;2.67;;
35797;SDS011;21918;49.940;7.774;2023-06-14T13:47:37;2.40;;;2.20;;
35797;SDS011;21918;49.940;7.774;2023-06-14T13:50:05;4.28;;;3.15;;
35797;SDS011;21918;49.940;7.774;2023-06-14T13:52:33;2.80;;;2.60;;
35797;SDS011;21918;49.940;7.774;2023-06-14T13:55:00;2.40;;;2.20;;
35797;SDS011;21918;49.940;7.774;2023-06-14T13:57:28;3.97;;;2.83;;
35797;SDS011;21918;49.940;7.774;2023-06-14T13:59:55;2.85;;;2.65;;
35797;SDS011;21918;49.940;7.774;2023-06-14T14:02:26;3.03;;;2.55;;
35797;SDS011;21918;49.940;7.774;2023-06-14T14:04:53;2.92;;;2.72;;
35797;SDS011;21918;49.940;7.774;2023-06-14T14:07:23;2.20;;;2.00;;
35797;SDS011;21918;49.940;7.774;2023-06-14T14:09:51;3.58;;;2.50;;
35797;SDS011;21918;49.940;7.774;2023-06-14T14:12:18;2.53;;;2.33;;
35797;SDS011;21918;49.940;7.774;2023-06-14T14:14:45;2.50;;;2.30;;
35797;SDS011;21918;49.940;7.774;2023-06-14T14:17:12;3.70;;;3.15;;
35797;SDS011;21918;49.940;7.774;2023-06-14T14:19:38;3.22;;;2.92;;
35797;SDS011;21918;49.940;7.774;2023-06-14T14:22:05;3.00;;;2.60;;
35797;SDS011;21918;49.940;7.774;2023-06-14T14:24:32;3.00;;;2.75;;
35797;SDS011;21918;49.940;7.774;2023-06-14T14:27:00;2.67;;;2.47;;
35797;SDS011;21918;49.940;7.774;2023-06-14T14:29:26;2.33;;;2.13;;
35797;SDS011;21918;49.940;7.774;2023-06-14T14:31:54;2.78;;;2.58;;
35797;SDS011;21918;49.940;7.774;2023-06-14T14:34:21;2.72;;;2.40;;
35797;SDS011;21918;49.940;7.774;2023-06-14T14:36:48;5.03;;;3.03;;
35797;SDS011;21918;49.940;7.774;2023-06-14T14:39:14;2.90;;;2.65;;
35797;SDS011;21918;49.940;7.774;2023-06-14T14:41:41;2.63;;;1.98;;
35797;SDS011;21918;49.940;7.774;2023-06-14T14:44:15;3.72;;;2.90;;
35797;SDS011;21918;49.940;7.774;2023-06-14T14:46:43;2.85;;;2.45;;
35797;SDS011;21918;49.940;7.774;2023-06-14T14:49:10;3.97;;;2.58;;
35797;SDS011;21918;49.940;7.774;2023-06-14T14:51:36;2.47;;;2.28;;
35797;SDS011;21918;49.940;7.774;2023-06-14T14:54:03;2.75;;;2.55;;
35797;SDS011;21918;49.940;7.774;2023-06-14T14:56:33;2.60;;;2.40;;